Magnolia Beach, Texas
Current Conditions -  °F | °C
As of 7:15 PM on Sunday 23 Nov 2014 (Local Time) from KPKV Reporting Station
Clear Clear  
Wind Chill: 65°   Ceiling: Unl
Heat Index: 65°   Visibility: 10mi
Dew Point: 62°   Wind: 10mph
Humidity: 90%   Direction: 190°S
Pressure: 29.64"   Gusts: NA
Location:  28.5342°N, 96.663°W
Report Text: KPKV 240115Z AUTO 19009KT 10SM CLR 19/17 A2964 RMK AO2 T01850168
Loading
Personal Weather Stations






























Interactive Weather Map New forecast layout! Learn more

10-Day Weather Forecast

Advertisements
Track Severe Weather on mobile